createdAt,value
2023-04-01T00:00:34.015Z,42.94
2023-04-01T00:01:34.003Z,42.94
2023-04-01T00:02:34.058Z,42.93
2023-04-01T00:03:34.248Z,42.92
2023-04-01T00:04:34.010Z,42.91
2023-04-01T00:05:34.190Z,42.91
2023-04-01T00:06:33.974Z,42.90
2023-04-01T00:07:33.980Z,42.92
2023-04-01T00:08:34.005Z,42.91
2023-04-01T00:09:34.000Z,42.88
2023-04-01T00:10:33.947Z,42.90
2023-04-01T00:11:33.965Z,42.87
2023-04-01T00:12:33.937Z,42.85
2023-04-01T00:13:33.927Z,42.87
2023-04-01T00:14:33.942Z,42.88
2023-04-01T00:15:34.082Z,42.86
2023-04-01T00:16:33.938Z,42.83
2023-04-01T00:17:33.902Z,42.86
2023-04-01T00:18:33.885Z,42.82
2023-04-01T00:19:33.934Z,42.85
2023-04-01T00:20:33.887Z,42.81
2023-04-01T00:21:33.855Z,42.80
2023-04-01T00:22:33.888Z,42.83
2023-04-01T00:23:33.884Z,42.79
2023-04-01T00:24:33.857Z,42.84
2023-04-01T00:25:34.179Z,42.80
2023-04-01T00:26:33.857Z,42.81
2023-04-01T00:27:33.846Z,42.80
2023-04-01T00:28:33.849Z,42.79
2023-04-01T00:29:33.854Z,42.77
2023-04-01T00:30:33.843Z,42.79
2023-04-01T00:31:33.862Z,42.75
2023-04-01T00:32:33.853Z,42.76
2023-04-01T00:33:33.828Z,42.75
2023-04-01T00:34:33.826Z,42.74
2023-04-01T00:35:34.070Z,42.72
2023-04-01T00:36:33.819Z,42.73
2023-04-01T00:37:33.763Z,42.72
2023-04-01T00:38:33.793Z,42.73
2023-04-01T00:39:33.736Z,42.70
2023-04-01T00:40:33.774Z,42.69
2023-04-01T00:41:33.787Z,42.70
2023-04-01T00:42:33.758Z,42.71
2023-04-01T00:43:33.741Z,42.71
2023-04-01T00:44:33.710Z,42.67
2023-04-01T00:45:33.828Z,42.67
2023-04-01T00:46:33.703Z,42.66
2023-04-01T00:47:33.711Z,42.64
2023-04-01T00:48:33.675Z,42.66
2023-04-01T00:49:33.707Z,42.64
2023-04-01T00:50:33.698Z,42.62
2023-04-01T00:51:33.661Z,42.65
2023-04-01T00:52:33.645Z,42.61
2023-04-01T00:53:33.633Z,42.60
2023-04-01T00:54:33.631Z,42.61
2023-04-01T00:55:33.934Z,42.61
2023-04-01T00:56:33.672Z,42.60
2023-04-01T00:57:33.705Z,42.59
2023-04-01T00:58:33.641Z,42.60
2023-04-01T00:59:33.692Z,42.58
2023-04-01T01:00:33.668Z,42.57
2023-04-01T01:01:33.641Z,42.58
2023-04-01T01:02:33.673Z,42.58
2023-04-01T01:03:33.621Z,42.56
2023-04-01T01:04:33.662Z,42.60
2023-04-01T01:05:34.672Z,42.60
2023-04-01T01:06:34.659Z,42.56
2023-04-01T01:07:33.640Z,42.57
2023-04-01T01:08:33.605Z,42.54
2023-04-01T01:09:33.618Z,42.53
2023-04-01T01:10:33.582Z,42.56
2023-04-01T01:11:36.963Z,42.55
2023-04-01T01:12:34.560Z,42.55
2023-04-01T01:13:33.530Z,42.55
2023-04-01T01:14:33.515Z,42.52
2023-04-01T01:15:33.758Z,42.50
2023-04-01T01:16:33.552Z,42.51
2023-04-01T01:17:33.557Z,42.49
2023-04-01T01:18:33.455Z,42.49
2023-04-01T01:19:33.449Z,42.50
2023-04-01T01:20:33.434Z,42.47
2023-04-01T01:21:33.409Z,42.46
2023-04-01T01:22:33.458Z,42.45
2023-04-01T01:23:33.433Z,42.48
2023-04-01T01:24:33.420Z,42.45
2023-04-01T01:25:33.733Z,42.46
2023-04-01T01:26:33.372Z,42.42
2023-04-01T01:27:33.357Z,42.43
2023-04-01T01:28:33.366Z,42.43
2023-04-01T01:29:33.355Z,42.42
2023-04-01T01:30:33.333Z,42.42
2023-04-01T01:31:33.305Z,42.42
2023-04-01T01:32:33.324Z,42.41
2023-04-01T01:33:34.192Z,42.42
2023-04-01T01:34:33.279Z,42.43
2023-04-01T01:35:33.448Z,42.39
2023-04-01T01:36:33.257Z,42.40
2023-04-01T01:37:33.242Z,42.41
2023-04-01T01:38:33.233Z,42.37
2023-04-01T01:39:33.210Z,42.39
2023-04-01T01:40:33.211Z,42.37
2023-04-01T01:41:33.171Z,42.35
2023-04-01T01:42:33.161Z,42.35
2023-04-01T01:43:33.148Z,42.33
2023-04-01T01:44:33.187Z,42.36
2023-04-01T01:45:33.391Z,42.33
2023-04-01T01:46:33.233Z,42.35
2023-04-01T01:47:33.194Z,42.35
2023-04-01T01:48:33.160Z,42.32
2023-04-01T01:49:33.163Z,42.33
2023-04-01T01:50:33.124Z,42.33
2023-04-01T01:51:33.150Z,42.31
2023-04-01T01:52:33.151Z,42.30
2023-04-01T01:53:33.148Z,42.31
2023-04-01T01:54:33.168Z,42.33
2023-04-01T01:55:33.455Z,42.28
2023-04-01T01:56:33.136Z,42.27
2023-04-01T01:57:33.184Z,42.29
2023-04-01T01:58:33.179Z,42.26
2023-04-01T01:59:33.147Z,42.24
2023-04-01T02:00:33.136Z,42.23
2023-04-01T02:01:33.159Z,42.24
2023-04-01T02:02:33.170Z,42.25
2023-04-01T02:03:33.172Z,42.24
2023-04-01T02:04:33.222Z,42.20
2023-04-01T02:05:33.253Z,42.20
2023-04-01T02:06:33.134Z,42.19
2023-04-01T02:07:33.110Z,42.22
2023-04-01T02:08:33.130Z,42.19
2023-04-01T02:09:33.131Z,42.19
2023-04-01T02:10:33.108Z,42.19
2023-04-01T02:11:33.110Z,42.17
2023-04-01T02:12:33.109Z,42.18
2023-04-01T02:13:33.125Z,42.16
2023-04-01T02:14:33.187Z,42.17
2023-04-01T02:15:33.241Z,42.19
2023-04-01T02:16:33.188Z,42.15
2023-04-01T02:17:33.131Z,42.16
2023-04-01T02:18:33.159Z,42.16
2023-04-01T02:19:33.095Z,42.12
2023-04-01T02:20:33.102Z,42.12
2023-04-01T02:21:33.079Z,42.12
2023-04-01T02:22:33.095Z,42.12
2023-04-01T02:23:33.087Z,42.09
2023-04-01T02:24:33.111Z,42.11
2023-04-01T02:25:33.248Z,42.09
2023-04-01T02:26:33.113Z,42.09
2023-04-01T02:27:33.113Z,42.07
2023-04-01T02:28:33.124Z,42.07
2023-04-01T02:29:33.107Z,42.07
2023-04-01T02:30:33.083Z,42.08
2023-04-01T02:31:33.131Z,42.06
2023-04-01T02:32:33.202Z,42.04
2023-04-01T02:33:33.108Z,42.06
2023-04-01T02:34:33.102Z,42.04
2023-04-01T02:35:33.299Z,42.05
2023-04-01T02:36:33.081Z,42.04
2023-04-01T02:37:34.331Z,42.04
2023-04-01T02:38:33.063Z,42.02
2023-04-01T02:39:33.043Z,42.04
2023-04-01T02:40:33.022Z,42.01
2023-04-01T02:41:33.000Z,42.00
2023-04-01T02:42:32.974Z,41.99
2023-04-01T02:43:32.984Z,41.99
2023-04-01T02:44:32.996Z,42.00
2023-04-01T02:45:33.163Z,42.02
2023-04-01T02:46:32.938Z,41.97
2023-04-01T02:47:32.975Z,41.95
2023-04-01T02:48:32.921Z,41.97
2023-04-01T02:49:32.945Z,41.93
2023-04-01T02:50:32.925Z,41.96
2023-04-01T02:51:33.147Z,41.97
2023-04-01T02:52:32.866Z,41.99
2023-04-01T02:53:32.890Z,41.93
2023-04-01T02:54:32.845Z,41.93
2023-04-01T02:55:32.993Z,41.94
2023-04-01T02:56:32.791Z,41.92
2023-04-01T02:57:32.790Z,41.92
2023-04-01T02:58:32.739Z,41.92
2023-04-01T02:59:32.738Z,41.93
2023-04-01T03:00:32.705Z,41.90
2023-04-01T03:01:32.743Z,41.93
2023-04-01T03:02:32.773Z,41.88
2023-04-01T03:03:32.698Z,41.89
2023-04-01T03:04:32.655Z,41.88
2023-04-01T03:05:33.025Z,41.87
2023-04-01T03:06:32.610Z,41.88
2023-04-01T03:07:32.591Z,41.89
2023-04-01T03:08:32.566Z,41.86
2023-04-01T03:09:32.596Z,41.86
2023-04-01T03:10:32.531Z,41.86
2023-04-01T03:11:32.528Z,41.83
2023-04-01T03:12:32.521Z,41.83
2023-04-01T03:13:32.513Z,41.84
2023-04-01T03:14:32.493Z,41.84
2023-04-01T03:15:32.780Z,41.82
2023-04-01T03:16:32.530Z,41.83
2023-04-01T03:17:32.486Z,41.81
2023-04-01T03:18:32.414Z,41.79
2023-04-01T03:19:32.408Z,41.80
2023-04-01T03:20:32.405Z,41.80
2023-04-01T03:21:32.401Z,41.80
2023-04-01T03:22:32.414Z,41.80
2023-04-01T03:23:32.400Z,41.77
2023-04-01T03:24:32.345Z,41.77
2023-04-01T03:25:32.515Z,41.76
2023-04-01T03:26:32.323Z,41.76
2023-04-01T03:27:32.336Z,41.74
2023-04-01T03:28:32.287Z,41.75
2023-04-01T03:29:32.315Z,41.74
2023-04-01T03:30:32.382Z,41.72
2023-04-01T03:31:32.372Z,41.71
2023-04-01T03:32:32.329Z,41.71
2023-04-01T03:33:32.245Z,41.71
2023-04-01T03:34:32.250Z,41.73
2023-04-01T03:35:32.411Z,41.73
2023-04-01T03:36:32.213Z,41.70
2023-04-01T03:37:32.207Z,41.71
2023-04-01T03:38:32.193Z,41.71
2023-04-01T03:39:32.156Z,41.70
2023-04-01T03:40:32.145Z,41.68
2023-04-01T03:41:32.132Z,41.70
2023-04-01T03:42:32.128Z,41.70
2023-04-01T03:43:32.113Z,41.69
2023-04-01T03:44:32.124Z,41.65
2023-04-01T03:45:32.137Z,41.64
2023-04-01T03:46:32.102Z,41.66
2023-04-01T03:47:32.063Z,41.65
2023-04-01T03:48:32.043Z,41.66
2023-04-01T03:49:32.065Z,41.62
2023-04-01T03:50:32.273Z,41.63
2023-04-01T03:51:31.990Z,41.63
2023-04-01T03:52:31.970Z,41.64
2023-04-01T03:53:31.940Z,41.60
2023-04-01T03:54:31.959Z,41.63
2023-04-01T03:55:32.195Z,41.59
2023-04-01T03:56:31.904Z,41.60
2023-04-01T03:57:31.941Z,41.57
2023-04-01T03:58:31.876Z,41.58
2023-04-01T03:59:31.894Z,41.58
2023-04-01T04:00:31.867Z,41.60
2023-04-01T04:01:31.868Z,41.59
2023-04-01T04:02:31.952Z,41.58
2023-04-01T04:03:32.019Z,41.55
2023-04-01T04:04:31.847Z,41.55
2023-04-01T04:05:32.088Z,41.54
2023-04-01T04:06:31.832Z,41.55
2023-04-01T04:07:31.801Z,41.56
2023-04-01T04:08:31.781Z,41.55
2023-04-01T04:09:31.772Z,41.54
2023-04-01T04:10:31.798Z,41.53
2023-04-01T04:11:31.790Z,41.53
2023-04-01T04:12:31.778Z,41.50
2023-04-01T04:13:31.733Z,41.50
2023-04-01T04:14:31.737Z,41.51
2023-04-01T04:15:31.955Z,41.50
2023-04-01T04:16:31.762Z,41.51
2023-04-01T04:17:31.742Z,41.49
2023-04-01T04:18:31.672Z,41.48
2023-04-01T04:19:31.710Z,41.48
2023-04-01T04:20:31.664Z,41.47
2023-04-01T04:21:31.633Z,41.45
2023-04-01T04:22:31.629Z,41.45
2023-04-01T04:23:31.588Z,41.46
2023-04-01T04:24:31.602Z,41.48
2023-04-01T04:25:31.822Z,41.48
2023-04-01T04:26:31.550Z,41.45
2023-04-01T04:27:31.513Z,41.42
2023-04-01T04:28:31.532Z,41.43
2023-04-01T04:29:31.497Z,41.42
2023-04-01T04:30:31.507Z,41.43
2023-04-01T04:31:31.512Z,41.41
2023-04-01T04:32:31.540Z,41.38
2023-04-01T04:33:31.461Z,41.40
2023-04-01T04:34:31.440Z,41.43
2023-04-01T04:35:31.649Z,41.38
2023-04-01T04:36:31.437Z,41.40
2023-04-01T04:37:31.419Z,41.39
2023-04-01T04:38:31.352Z,41.37
2023-04-01T04:39:31.373Z,41.36
2023-04-01T04:40:31.376Z,41.39
2023-04-01T04:41:31.350Z,41.38
2023-04-01T04:42:31.315Z,41.36
2023-04-01T04:43:31.280Z,41.39
2023-04-01T04:44:31.309Z,41.37
2023-04-01T04:45:31.435Z,41.37
2023-04-01T04:46:31.324Z,41.37
2023-04-01T04:47:31.262Z,41.36
2023-04-01T04:48:31.247Z,41.33
2023-04-01T04:49:31.252Z,41.34
2023-04-01T04:50:31.234Z,41.33
2023-04-01T04:51:31.224Z,41.31
2023-04-01T04:52:31.247Z,41.30
2023-04-01T04:53:31.194Z,41.31
2023-04-01T04:54:31.177Z,41.31
2023-04-01T04:55:31.481Z,41.28
2023-04-01T04:56:31.180Z,41.28
2023-04-01T04:57:31.291Z,41.28
2023-04-01T04:58:31.163Z,41.27
2023-04-01T04:59:31.127Z,41.27
2023-04-01T05:00:31.105Z,41.26
2023-04-01T05:01:31.154Z,41.25
2023-04-01T05:02:31.151Z,41.25
2023-04-01T05:03:31.258Z,41.22
2023-04-01T05:04:31.100Z,41.26
2023-04-01T05:05:31.229Z,41.22
2023-04-01T05:06:31.029Z,41.23
2023-04-01T05:07:31.049Z,41.23
2023-04-01T05:08:31.030Z,41.21
2023-04-01T05:09:31.000Z,41.22
2023-04-01T05:10:30.996Z,41.21
2023-04-01T05:11:31.019Z,41.21
2023-04-01T05:12:30.974Z,41.19
2023-04-01T05:13:30.946Z,41.20
2023-04-01T05:14:30.959Z,41.18
2023-04-01T05:15:31.351Z,41.19
2023-04-01T05:16:31.012Z,41.20
2023-04-01T05:17:30.950Z,41.17
2023-04-01T05:18:30.881Z,41.16
2023-04-01T05:19:30.884Z,41.17
2023-04-01T05:20:30.845Z,41.14
2023-04-01T05:21:30.837Z,41.13
2023-04-01T05:22:30.834Z,41.12
2023-04-01T05:23:30.815Z,41.16
2023-04-01T05:24:30.876Z,41.17
2023-04-01T05:25:31.174Z,41.15
2023-04-01T05:26:30.847Z,41.11
2023-04-01T05:27:30.854Z,41.11
2023-04-01T05:28:30.847Z,41.14
2023-04-01T05:29:30.910Z,41.10
2023-04-01T05:30:30.878Z,41.09
2023-04-01T05:31:30.892Z,41.11
2023-04-01T05:32:30.897Z,41.08
2023-04-01T05:33:30.866Z,41.08
2023-04-01T05:34:30.889Z,41.07
2023-04-01T05:35:31.119Z,41.08
2023-04-01T05:36:30.888Z,41.04
2023-04-01T05:37:30.888Z,41.05
2023-04-01T05:38:30.888Z,41.06
2023-04-01T05:39:30.869Z,41.03
2023-04-01T05:40:30.922Z,41.04
2023-04-01T05:41:30.918Z,41.04
2023-04-01T05:42:30.897Z,41.00
2023-04-01T05:43:30.903Z,41.02
2023-04-01T05:44:30.974Z,41.01
2023-04-01T05:45:31.115Z,41.01
2023-04-01T05:46:30.938Z,40.99
2023-04-01T05:47:30.966Z,40.99
2023-04-01T05:48:30.911Z,40.96
2023-04-01T05:49:30.919Z,40.98
2023-04-01T05:50:30.929Z,40.97
2023-04-01T05:51:30.917Z,40.96
2023-04-01T05:52:30.911Z,40.95
2023-04-01T05:53:30.932Z,40.96
2023-04-01T05:54:30.953Z,40.93
2023-04-01T05:55:30.940Z,40.93
2023-04-01T05:56:30.917Z,40.91
2023-04-01T05:57:30.967Z,40.91
2023-04-01T05:58:30.918Z,40.89
2023-04-01T05:59:30.964Z,40.88
2023-04-01T06:00:30.923Z,40.88
2023-04-01T06:01:30.961Z,40.88
2023-04-01T06:02:31.004Z,40.87
2023-04-01T06:03:31.063Z,40.86
2023-04-01T06:04:31.032Z,40.87
2023-04-01T06:05:31.041Z,40.85
2023-04-01T06:06:30.999Z,40.82
2023-04-01T06:07:30.969Z,40.81
2023-04-01T06:08:30.988Z,40.83
2023-04-01T06:09:31.016Z,40.82
2023-04-01T06:10:31.001Z,40.79
2023-04-01T06:11:30.999Z,40.77
2023-04-01T06:12:31.000Z,40.79
2023-04-01T06:13:31.005Z,40.76
2023-04-01T06:14:30.995Z,40.77
2023-04-01T06:15:31.404Z,40.76
2023-04-01T06:16:31.088Z,40.73
2023-04-01T06:17:31.037Z,40.72
2023-04-01T06:18:31.028Z,40.74
2023-04-01T06:19:31.060Z,40.72
2023-04-01T06:20:31.033Z,40.71
2023-04-01T06:21:31.041Z,40.67
2023-04-01T06:22:31.814Z,40.68
2023-04-01T06:23:31.060Z,40.68
2023-04-01T06:24:31.049Z,40.67
2023-04-01T06:25:31.251Z,40.67
2023-04-01T06:26:31.072Z,40.65
2023-04-01T06:27:31.053Z,40.65
2023-04-01T06:28:31.069Z,40.66
2023-04-01T06:29:31.057Z,40.65
2023-04-01T06:30:31.075Z,40.63
2023-04-01T06:31:31.203Z,40.61
2023-04-01T06:32:31.073Z,40.64
2023-04-01T06:33:31.145Z,40.63
2023-04-01T06:34:31.072Z,40.60
2023-04-01T06:35:31.289Z,40.62
2023-04-01T06:36:31.106Z,40.63
2023-04-01T06:37:31.056Z,40.62
2023-04-01T06:38:31.025Z,40.59
2023-04-01T06:39:31.058Z,40.59
2023-04-01T06:40:31.074Z,40.60
2023-04-01T06:41:31.079Z,40.57
2023-04-01T06:42:31.056Z,40.59
2023-04-01T06:43:31.051Z,40.59
2023-04-01T06:44:31.044Z,40.57
2023-04-01T06:45:31.172Z,40.54
2023-04-01T06:46:31.083Z,40.53
2023-04-01T06:47:31.057Z,40.52
2023-04-01T06:48:31.048Z,40.53
2023-04-01T06:49:31.117Z,40.50
2023-04-01T06:50:31.067Z,40.50
2023-04-01T06:51:31.068Z,40.49
2023-04-01T06:52:31.041Z,40.48
2023-04-01T06:53:31.038Z,40.45
2023-04-01T06:54:31.063Z,40.45
2023-04-01T06:55:31.187Z,40.44
2023-04-01T06:56:31.062Z,40.44
2023-04-01T06:57:31.153Z,40.43
2023-04-01T06:58:31.082Z,40.41
2023-04-01T06:59:31.069Z,40.40
2023-04-01T07:00:31.087Z,40.41
2023-04-01T07:01:31.075Z,40.40
2023-04-01T07:02:31.103Z,40.39
2023-04-01T07:03:31.044Z,40.38
2023-04-01T07:04:31.072Z,40.36
2023-04-01T07:05:31.678Z,40.38
2023-04-01T07:06:31.044Z,40.38
2023-04-01T07:07:31.040Z,40.36
2023-04-01T07:08:31.061Z,40.33
2023-04-01T07:09:31.036Z,40.33
2023-04-01T07:10:31.080Z,40.33
2023-04-01T07:11:31.039Z,40.31
2023-04-01T07:12:31.046Z,40.29
2023-04-01T07:13:31.031Z,40.29
2023-04-01T07:14:31.027Z,40.28
2023-04-01T07:15:31.201Z,40.27
2023-04-01T07:16:31.048Z,40.29
2023-04-01T07:17:30.994Z,40.24
2023-04-01T07:18:30.983Z,40.25
2023-04-01T07:19:30.962Z,40.23
2023-04-01T07:20:30.964Z,40.22
2023-04-01T07:21:32.124Z,40.21
2023-04-01T07:22:31.049Z,40.19
2023-04-01T07:23:31.068Z,40.17
2023-04-01T07:24:31.030Z,40.17
2023-04-01T07:25:31.253Z,40.18
2023-04-01T07:26:31.048Z,40.16
2023-04-01T07:27:31.062Z,40.16
2023-04-01T07:28:31.056Z,40.12
2023-04-01T07:29:31.041Z,40.10
2023-04-01T07:30:31.068Z,40.09
2023-04-01T07:31:31.192Z,40.10
2023-04-01T07:32:31.076Z,40.10
2023-04-01T07:33:31.042Z,40.10
2023-04-01T07:34:31.010Z,40.11
2023-04-01T07:35:31.275Z,40.08
2023-04-01T07:36:30.989Z,40.08
2023-04-01T07:37:30.990Z,40.07
2023-04-01T07:38:31.013Z,40.05
2023-04-01T07:39:31.012Z,40.03
2023-04-01T07:40:30.985Z,40.05
2023-04-01T07:41:30.980Z,40.02
2023-04-01T07:42:30.967Z,39.99
2023-04-01T07:43:30.955Z,39.97
2023-04-01T07:44:30.954Z,39.98
2023-04-01T07:45:30.999Z,39.95
2023-04-01T07:46:30.991Z,39.94
2023-04-01T07:47:30.958Z,39.92
2023-04-01T07:48:30.896Z,39.93
2023-04-01T07:49:30.886Z,39.93
2023-04-01T07:50:30.900Z,39.89
2023-04-01T07:51:30.881Z,39.90
2023-04-01T07:52:30.847Z,39.92
2023-04-01T07:53:30.858Z,39.92
2023-04-01T07:54:30.876Z,39.91
2023-04-01T07:55:30.884Z,39.90
2023-04-01T07:56:30.854Z,39.89
2023-04-01T07:57:30.830Z,39.89
2023-04-01T07:58:30.837Z,39.89
2023-04-01T07:59:30.779Z,39.89
2023-04-01T08:00:30.809Z,39.89
2023-04-01T08:01:30.774Z,39.86
2023-04-01T08:02:30.824Z,39.86
2023-04-01T08:03:30.830Z,39.83
2023-04-01T08:04:30.841Z,39.81
2023-04-01T08:05:30.926Z,39.77
2023-04-01T08:06:30.742Z,39.77
2023-04-01T08:07:30.707Z,39.73
2023-04-01T08:08:30.676Z,39.74
2023-04-01T08:09:30.700Z,39.70
2023-04-01T08:10:30.680Z,39.72
2023-04-01T08:11:30.652Z,39.68
2023-04-01T08:12:30.651Z,39.69
2023-04-01T08:13:30.659Z,39.69
2023-04-01T08:14:30.656Z,39.69
2023-04-01T08:16:30.695Z,39.63
2023-04-01T08:17:30.638Z,39.60
2023-04-01T08:18:30.662Z,39.60
2023-04-01T08:19:30.620Z,39.61
2023-04-01T08:20:30.643Z,39.58
2023-04-01T08:21:30.666Z,39.62
2023-04-01T08:22:30.672Z,39.61
2023-04-01T08:23:30.690Z,39.57
2023-04-01T08:24:40.671Z,39.58
2023-04-01T08:25:31.894Z,39.60
2023-04-01T08:26:30.649Z,39.61
2023-04-01T08:27:30.617Z,39.59
2023-04-01T08:28:30.626Z,39.58
2023-04-01T08:29:30.594Z,39.59
2023-04-01T08:30:30.569Z,39.55
2023-04-01T08:31:30.613Z,39.58
2023-04-01T08:32:30.598Z,39.57
2023-04-01T08:33:30.522Z,39.56
2023-04-01T08:34:30.490Z,39.53
2023-04-01T08:35:32.198Z,39.51
2023-04-01T08:36:30.533Z,39.51
2023-04-01T08:37:30.551Z,39.51
2023-04-01T08:38:30.602Z,39.50
2023-04-01T08:39:30.596Z,39.51
2023-04-01T08:40:30.666Z,39.47
2023-04-01T08:41:30.640Z,39.46
2023-04-01T08:42:30.678Z,39.49
2023-04-01T08:43:30.718Z,39.41
2023-04-01T08:44:30.704Z,39.43
2023-04-01T08:45:30.876Z,39.35
2023-04-01T08:46:30.796Z,39.41
2023-04-01T08:47:30.848Z,39.31
2023-04-01T08:48:30.874Z,39.27
2023-04-01T08:49:30.907Z,39.22
2023-04-01T08:50:30.945Z,39.19
2023-04-01T08:51:30.993Z,39.12
2023-04-01T08:52:31.034Z,39.14
2023-04-01T08:53:31.062Z,39.07
2023-04-01T08:54:31.127Z,39.09
2023-04-01T08:55:31.613Z,39.07
2023-04-01T08:56:31.205Z,39.04
2023-04-01T08:57:31.288Z,39.04
2023-04-01T08:58:31.272Z,38.94
2023-04-01T08:59:31.333Z,38.95
2023-04-01T09:00:31.422Z,38.87
2023-04-01T09:01:31.431Z,38.90
2023-04-01T09:02:31.506Z,38.91
2023-04-01T09:03:31.557Z,38.92
2023-04-01T09:04:31.671Z,38.91
2023-04-01T09:05:31.978Z,38.98
2023-04-01T09:06:31.624Z,38.96
2023-04-01T09:07:31.693Z,38.86
2023-04-01T09:08:31.736Z,38.85
2023-04-01T09:09:31.735Z,38.84
2023-04-01T09:10:31.803Z,38.81
2023-04-01T09:11:31.882Z,38.78
2023-04-01T09:12:31.832Z,38.74
2023-04-01T09:13:31.868Z,38.65
2023-04-01T09:14:31.952Z,38.67
2023-04-01T09:15:32.149Z,38.69
2023-04-01T09:16:32.032Z,38.61
2023-04-01T09:17:32.022Z,38.58
2023-04-01T09:18:32.053Z,38.63
2023-04-01T09:19:32.076Z,38.67
2023-04-01T09:20:32.092Z,38.64
2023-04-01T09:21:32.167Z,38.65
2023-04-01T09:22:32.174Z,38.67
2023-04-01T09:23:32.174Z,38.68
2023-04-01T09:24:32.231Z,38.69
2023-04-01T09:25:32.381Z,38.70
2023-04-01T09:26:32.272Z,38.67
2023-04-01T09:27:32.308Z,38.68
2023-04-01T09:28:32.336Z,38.70
2023-04-01T09:29:32.335Z,38.67
2023-04-01T09:30:32.363Z,38.70
2023-04-01T09:31:32.462Z,38.71
2023-04-01T09:32:32.508Z,38.71
2023-04-01T09:33:32.428Z,38.68
2023-04-01T09:34:32.456Z,38.69
2023-04-01T09:35:32.774Z,38.66
2023-04-01T09:36:32.518Z,38.65
2023-04-01T09:37:32.601Z,38.58
2023-04-01T09:38:32.567Z,38.54
2023-04-01T09:39:32.578Z,38.51
2023-04-01T09:40:32.597Z,38.48
2023-04-01T09:41:32.649Z,38.45
2023-04-01T09:42:32.663Z,38.42
2023-04-01T09:43:32.686Z,38.42
2023-04-01T09:44:32.697Z,38.35
2023-04-01T09:45:32.921Z,38.35
2023-04-01T09:46:32.720Z,38.35
2023-04-01T09:47:32.823Z,38.30
2023-04-01T09:48:32.766Z,38.29
2023-04-01T09:49:32.770Z,38.27
2023-04-01T09:50:32.769Z,38.29
2023-04-01T09:51:32.799Z,38.26
2023-04-01T09:52:32.789Z,38.27
2023-04-01T09:53:32.775Z,38.30
2023-04-01T09:54:32.812Z,38.30
2023-04-01T09:55:32.965Z,38.31
2023-04-01T09:56:33.780Z,38.27
2023-04-01T09:57:32.876Z,38.28
2023-04-01T09:58:32.872Z,38.29
2023-04-01T09:59:32.881Z,38.25
2023-04-01T10:00:32.895Z,38.22
2023-04-01T10:01:32.911Z,38.22
2023-04-01T10:02:32.928Z,38.21
2023-04-01T10:03:32.881Z,38.24
2023-04-01T10:04:32.935Z,38.22
2023-04-01T10:05:33.096Z,38.23
2023-04-01T10:06:32.908Z,38.20
2023-04-01T10:07:32.911Z,38.21
2023-04-01T10:08:32.928Z,38.23
2023-04-01T10:09:32.942Z,38.20
2023-04-01T10:10:32.916Z,38.20
2023-04-01T10:11:32.956Z,38.19
2023-04-01T10:12:32.918Z,38.16
2023-04-01T10:13:32.908Z,38.21
2023-04-01T10:14:32.936Z,38.23
2023-04-01T10:15:33.136Z,38.21
2023-04-01T10:16:33.007Z,38.21
2023-04-01T10:17:32.962Z,38.23
2023-04-01T10:18:32.978Z,38.25
2023-04-01T10:19:33.000Z,38.25
2023-04-01T10:20:33.084Z,38.23
2023-04-01T10:21:32.995Z,38.24
2023-04-01T10:22:33.022Z,38.20
2023-04-01T10:23:32.982Z,38.19
2023-04-01T10:24:33.002Z,38.17
2023-04-01T10:25:33.175Z,38.19
2023-04-01T10:26:33.001Z,38.19
2023-04-01T10:27:33.010Z,38.18
2023-04-01T10:28:32.998Z,38.15
2023-04-01T10:29:32.986Z,38.14
2023-04-01T10:30:33.008Z,38.15
2023-04-01T10:31:32.997Z,38.11
2023-04-01T10:32:33.021Z,38.11
2023-04-01T10:33:32.997Z,38.11
2023-04-01T10:34:32.997Z,38.11
2023-04-01T10:35:33.170Z,38.15
2023-04-01T10:36:32.991Z,38.13
2023-04-01T10:37:32.972Z,38.12
2023-04-01T10:38:33.010Z,38.11
2023-04-01T10:39:33.024Z,38.10
2023-04-01T10:40:33.004Z,38.08
2023-04-01T10:41:32.998Z,38.05
2023-04-01T10:42:32.989Z,38.04
2023-04-01T10:43:32.959Z,38.04
2023-04-01T10:44:32.955Z,38.02
2023-04-01T10:45:33.296Z,38.03
2023-04-01T10:46:33.083Z,38.06
2023-04-01T10:47:33.019Z,38.06
2023-04-01T10:48:32.937Z,38.06
2023-04-01T10:49:32.934Z,38.08
2023-04-01T10:50:32.932Z,38.08
2023-04-01T10:51:32.962Z,38.06
2023-04-01T10:52:32.970Z,38.07
2023-04-01T10:53:32.885Z,38.05
2023-04-01T10:54:32.900Z,38.08
2023-04-01T10:55:33.260Z,38.06
2023-04-01T10:56:32.910Z,38.06
2023-04-01T10:57:32.966Z,38.04
2023-04-01T10:58:32.938Z,38.06
2023-04-01T10:59:32.889Z,38.05
2023-04-01T11:00:32.832Z,38.04
2023-04-01T11:01:32.954Z,38.05
2023-04-01T11:02:32.931Z,38.03
2023-04-01T11:03:32.933Z,38.04
2023-04-01T11:04:32.839Z,38.05
2023-04-01T11:05:32.959Z,38.02
2023-04-01T11:06:32.841Z,38.03
2023-04-01T11:07:32.799Z,38.02
2023-04-01T11:08:32.819Z,37.99
2023-04-01T11:09:32.801Z,38.00
2023-04-01T11:10:32.822Z,37.97
2023-04-01T11:11:32.789Z,38.01
2023-04-01T11:12:32.777Z,38.01
2023-04-01T11:13:32.793Z,38.02
2023-04-01T11:14:32.753Z,38.00
2023-04-01T11:15:33.063Z,37.98
2023-04-01T11:16:32.822Z,37.92
2023-04-01T11:17:32.778Z,37.91
2023-04-01T11:18:32.736Z,37.89
2023-04-01T11:19:32.710Z,37.86
2023-04-01T11:20:32.713Z,37.86
2023-04-01T11:21:32.707Z,37.84
2023-04-01T11:22:32.683Z,37.83
2023-04-01T11:23:32.659Z,37.79
2023-04-01T11:24:32.688Z,37.77
2023-04-01T11:25:32.790Z,37.76
2023-04-01T11:26:32.632Z,37.75
2023-04-01T11:27:32.642Z,37.78
2023-04-01T11:28:32.616Z,37.75
2023-04-01T11:29:32.574Z,37.76
2023-04-01T11:30:32.604Z,37.79
2023-04-01T11:31:32.581Z,37.78
2023-04-01T11:32:32.557Z,37.77
2023-04-01T11:33:32.564Z,37.76
2023-04-01T11:34:32.501Z,37.79
2023-04-01T11:35:32.773Z,37.79
2023-04-01T11:36:32.495Z,37.78
2023-04-01T11:37:32.488Z,37.80
2023-04-01T11:38:32.471Z,37.80
2023-04-01T11:39:32.460Z,37.79
2023-04-01T11:40:32.436Z,37.81
2023-04-01T11:41:32.442Z,37.80
2023-04-01T11:42:32.384Z,37.79
2023-04-01T11:43:33.791Z,37.79
2023-04-01T11:44:32.378Z,37.79
2023-04-01T11:45:32.599Z,37.77
2023-04-01T11:46:32.444Z,37.80
2023-04-01T11:47:32.320Z,37.78
2023-04-01T11:48:32.314Z,37.72
2023-04-01T11:49:32.280Z,37.71
2023-04-01T11:50:32.296Z,37.67
2023-04-01T11:51:32.247Z,37.66
2023-04-01T11:52:32.243Z,37.67
2023-04-01T11:53:32.198Z,37.68
2023-04-01T11:54:32.182Z,37.66
2023-04-01T11:55:32.551Z,37.63
2023-04-01T11:56:32.162Z,37.67
2023-04-01T11:57:32.263Z,37.66
2023-04-01T11:58:32.121Z,37.66
2023-04-01T11:59:32.080Z,37.68
2023-04-01T12:00:32.063Z,37.65
2023-04-01T12:01:32.053Z,37.65
2023-04-01T12:02:32.133Z,37.65
2023-04-01T12:03:32.095Z,37.65
2023-04-01T12:04:32.012Z,37.65
2023-04-01T12:05:32.339Z,37.63
2023-04-01T12:06:31.949Z,37.65
2023-04-01T12:07:31.927Z,37.66
2023-04-01T12:08:31.915Z,37.67
2023-04-01T12:09:31.901Z,37.68
2023-04-01T12:10:31.898Z,37.65
2023-04-01T12:11:31.871Z,37.65
2023-04-01T12:12:31.821Z,37.67
2023-04-01T12:13:31.802Z,37.63
2023-04-01T12:14:31.826Z,37.66
2023-04-01T12:15:31.989Z,37.63
2023-04-01T12:16:31.843Z,37.63
2023-04-01T12:17:31.774Z,37.62
2023-04-01T12:18:31.735Z,37.62
2023-04-01T12:19:31.739Z,37.59
2023-04-01T12:20:31.700Z,37.59
2023-04-01T12:21:31.715Z,37.61
2023-04-01T12:22:33.270Z,37.60
2023-04-01T12:23:31.695Z,37.63
2023-04-01T12:24:31.663Z,37.61
2023-04-01T12:25:31.887Z,37.61
2023-04-01T12:26:31.627Z,37.63
2023-04-01T12:27:31.588Z,37.65
2023-04-01T12:28:31.589Z,37.63
2023-04-01T12:29:31.561Z,37.68
2023-04-01T12:30:31.550Z,37.67
2023-04-01T12:31:31.589Z,37.67
2023-04-01T12:32:31.536Z,37.67
2023-04-01T12:33:31.504Z,37.70
2023-04-01T12:34:31.498Z,37.68
2023-04-01T12:35:31.554Z,37.68
2023-04-01T12:36:31.473Z,37.68
2023-04-01T12:37:31.437Z,37.71
2023-04-01T12:38:31.410Z,37.68
2023-04-01T12:39:31.381Z,37.73
2023-04-01T12:40:31.590Z,37.72
2023-04-01T12:41:31.355Z,37.73
2023-04-01T12:42:31.367Z,37.74
2023-04-01T12:43:31.320Z,37.77
2023-04-01T12:44:31.282Z,37.77
2023-04-01T12:45:31.521Z,37.76
2023-04-01T12:46:31.358Z,37.76
2023-04-01T12:47:31.301Z,37.76
2023-04-01T12:48:31.226Z,37.78
2023-04-01T12:49:31.196Z,37.81
2023-04-01T12:50:31.208Z,37.79
2023-04-01T12:51:31.171Z,37.78
2023-04-01T12:52:31.150Z,37.79
2023-04-01T12:53:31.104Z,37.78